createdAt,value
2023-01-04T00:01:20.143Z,114.68
2023-01-04T00:06:26.429Z,111.65
2023-01-04T00:11:32.385Z,116.65
2023-01-04T00:16:38.746Z,121.93
2023-01-04T00:21:45.608Z,117.97
2023-01-04T00:31:57.108Z,127.50
2023-01-04T00:42:09.406Z,148.23
2023-01-04T00:47:15.773Z,158.77
2023-01-04T00:52:22.892Z,145.93
2023-01-04T00:57:29.153Z,108.13
2023-01-04T01:02:35.591Z,99.43
2023-01-04T01:12:50.412Z,81.25
2023-01-04T01:17:56.398Z,112.25
2023-01-04T01:23:03.060Z,104.97
2023-01-04T01:28:09.537Z,79.53
2023-01-04T01:33:15.449Z,125.70
2023-01-04T01:38:22.036Z,88.50
2023-01-04T01:43:47.577Z,93.03
2023-01-04T01:48:55.579Z,67.00
2023-01-04T01:54:06.883Z,79.63
2023-01-04T01:59:14.049Z,73.43
2023-01-04T02:04:20.492Z,71.93
2023-01-04T02:14:33.002Z,85.10
2023-01-04T02:19:59.978Z,78.78
2023-01-04T02:25:24.503Z,78.38
2023-01-04T02:30:49.446Z,62.72
2023-01-04T02:36:14.597Z,89.10
2023-01-04T02:41:27.127Z,57.22
2023-01-04T02:46:35.322Z,77.05
2023-01-04T02:51:41.922Z,62.20
2023-01-04T02:56:57.268Z,68.00
2023-01-04T03:02:26.900Z,68.15
2023-01-04T03:07:33.561Z,68.40
2023-01-04T03:12:45.063Z,64.28
2023-01-04T03:18:01.620Z,72.22
2023-01-04T03:23:30.304Z,69.80
2023-01-04T03:28:57.152Z,64.78
2023-01-04T03:39:45.096Z,70.15
2023-01-04T03:45:18.145Z,46.40
2023-01-04T03:50:30.558Z,50.72
2023-01-04T03:55:38.000Z,64.18
2023-01-04T04:00:44.549Z,47.08
2023-01-04T04:06:08.871Z,54.85
2023-01-04T04:11:33.189Z,50.33
2023-01-04T04:16:40.069Z,62.88
2023-01-04T04:21:46.254Z,53.25
2023-01-04T04:26:52.533Z,55.50
2023-01-04T04:37:04.460Z,48.45
2023-01-04T04:42:10.570Z,46.63
2023-01-04T04:47:17.057Z,57.05
2023-01-04T04:52:23.338Z,45.78
2023-01-04T04:57:29.524Z,50.22
2023-01-04T05:02:36.262Z,65.03
2023-01-04T05:07:43.033Z,69.32
2023-01-04T05:13:04.553Z,60.70
2023-01-04T05:18:12.256Z,66.38
2023-01-04T05:23:23.583Z,69.15
2023-01-04T05:28:37.450Z,62.45
2023-01-04T05:33:49.546Z,58.95
2023-01-04T05:38:57.135Z,63.85
2023-01-04T05:44:08.755Z,58.03
2023-01-04T05:49:15.576Z,60.63
2023-01-04T05:54:23.342Z,62.20
2023-01-04T05:59:39.010Z,55.42
2023-01-04T06:04:58.385Z,56.92
2023-01-04T06:10:08.397Z,44.03
2023-01-04T06:15:14.747Z,63.03
2023-01-04T06:25:27.244Z,50.65
2023-01-04T06:30:33.832Z,56.60
2023-01-04T06:35:40.470Z,57.72
2023-01-04T06:40:46.809Z,57.45
2023-01-04T06:45:53.212Z,61.80
2023-01-04T06:50:59.528Z,44.00
2023-01-04T06:56:05.934Z,55.22
2023-01-04T07:01:12.721Z,51.55
2023-01-04T07:06:19.088Z,62.88
2023-01-04T07:16:31.305Z,51.83
2023-01-04T07:21:37.802Z,57.58
2023-01-04T07:26:43.976Z,55.00
2023-01-04T07:31:50.977Z,64.40
2023-01-04T07:36:56.863Z,48.70
2023-01-04T07:42:02.683Z,67.00
2023-01-04T07:47:08.958Z,44.00
2023-01-04T07:57:21.257Z,59.53
2023-01-04T08:02:27.782Z,60.13
2023-01-04T08:07:34.536Z,64.65
2023-01-04T08:12:40.983Z,63.03
2023-01-04T08:17:47.069Z,62.53
2023-01-04T08:22:53.435Z,76.90
2023-01-04T08:28:00.147Z,62.45
2023-01-04T08:33:06.510Z,60.92
2023-01-04T08:38:47.141Z,64.18
2023-01-04T08:43:38.748Z,77.27
2023-01-04T08:48:45.242Z,79.78
2023-01-04T08:53:52.291Z,46.13
2023-01-04T08:58:58.579Z,77.82
2023-01-04T09:04:04.789Z,85.35
2023-01-04T09:14:19.798Z,74.80
2023-01-04T09:19:26.142Z,87.60
2023-01-04T09:24:35.358Z,82.13
2023-01-04T09:29:43.049Z,74.40
2023-01-04T09:34:49.004Z,76.78
2023-01-04T09:39:55.680Z,82.25
2023-01-04T09:45:24.607Z,83.47
2023-01-04T09:50:34.962Z,74.50
2023-01-04T09:55:49.821Z,78.75
2023-01-04T10:01:03.317Z,78.43
2023-01-04T10:06:10.889Z,69.53
2023-01-04T10:11:43.524Z,84.85
2023-01-04T10:22:19.960Z,89.15
2023-01-04T10:27:26.755Z,80.78
2023-01-04T10:32:39.965Z,73.32
2023-01-04T10:37:46.822Z,81.82
2023-01-04T10:43:03.589Z,88.40
2023-01-04T10:48:28.223Z,83.72
2023-01-04T10:53:34.433Z,52.67
2023-01-04T10:59:03.544Z,87.85
2023-01-04T11:04:16.523Z,74.50
2023-01-04T11:09:27.929Z,75.32
2023-01-04T11:14:37.380Z,60.92
2023-01-04T11:19:44.783Z,50.65
2023-01-04T11:25:33.175Z,64.22
2023-01-04T11:30:25.378Z,65.80
2023-01-04T11:35:45.408Z,49.88
2023-01-04T11:41:02.128Z,58.03
2023-01-04T11:46:10.723Z,71.88
2023-01-04T11:51:38.548Z,60.58
2023-01-04T11:57:10.730Z,54.97
2023-01-04T12:03:00.152Z,66.60
2023-01-04T12:13:04.971Z,54.17
2023-01-04T12:18:23.370Z,51.30
2023-01-04T12:23:38.194Z,53.10
2023-01-04T12:28:49.253Z,65.65
2023-01-04T12:33:59.479Z,66.53
2023-01-04T12:39:13.693Z,38.50
2023-01-04T12:50:31.278Z,53.17
2023-01-04T13:06:52.745Z,66.10
2023-01-04T13:12:26.575Z,64.43
2023-01-04T13:23:17.171Z,64.63
2023-01-04T13:28:31.439Z,62.75
2023-01-04T13:33:42.875Z,64.07
2023-01-04T13:38:57.516Z,66.35
2023-01-04T13:45:00.157Z,72.68
2023-01-04T13:55:31.219Z,76.07
2023-01-04T14:01:25.879Z,71.40
2023-01-04T14:06:47.604Z,56.17
2023-01-04T14:12:09.736Z,64.55
2023-01-04T14:17:24.061Z,66.88
2023-01-04T14:22:37.521Z,61.97
2023-01-04T14:27:48.014Z,55.30
2023-01-04T14:33:05.555Z,66.88
2023-01-04T14:38:45.329Z,41.40
2023-01-04T14:44:24.086Z,60.83
2023-01-04T15:00:39.551Z,60.72
2023-01-04T15:06:00.212Z,59.35
2023-01-04T15:11:14.809Z,63.88
2023-01-04T15:16:24.879Z,64.30
2023-01-04T15:21:46.613Z,56.40
2023-01-04T15:26:59.482Z,67.45
2023-01-04T15:32:14.910Z,58.92
2023-01-04T15:37:25.371Z,59.28
2023-01-04T15:42:56.748Z,65.00
2023-01-04T15:48:04.955Z,62.15
2023-01-04T15:53:15.691Z,67.07
2023-01-04T15:58:25.928Z,66.43
2023-01-04T16:03:33.563Z,64.85
2023-01-04T16:08:44.642Z,63.88
2023-01-04T16:13:55.026Z,57.28
2023-01-04T16:19:01.691Z,52.55
2023-01-04T16:24:29.259Z,58.25
2023-01-04T16:29:36.106Z,61.15
2023-01-04T16:34:42.287Z,52.10
2023-01-04T16:40:17.850Z,57.17
2023-01-04T16:45:14.886Z,53.85
2023-01-04T16:50:20.931Z,62.55
2023-01-04T16:55:27.120Z,62.30
2023-01-04T17:00:33.489Z,69.82
2023-01-04T17:05:43.188Z,53.65
2023-01-04T17:10:49.060Z,60.83
2023-01-04T17:15:55.122Z,64.50
2023-01-04T17:21:32.003Z,61.85
2023-01-04T17:26:30.411Z,80.45
2023-01-04T17:31:37.884Z,72.97
2023-01-04T17:36:44.428Z,75.45
2023-01-04T17:41:50.726Z,87.03
2023-01-04T17:46:56.331Z,68.47
2023-01-04T17:52:02.624Z,77.93
2023-01-04T17:57:09.122Z,80.97
2023-01-04T18:02:15.554Z,71.90
2023-01-04T18:12:32.626Z,77.13
2023-01-04T18:17:38.825Z,72.03
2023-01-04T18:22:45.077Z,78.57
2023-01-04T18:27:51.092Z,71.10
2023-01-04T18:32:57.373Z,72.60
2023-01-04T18:38:03.696Z,65.25
2023-01-04T18:43:10.464Z,71.57
2023-01-04T18:48:16.069Z,68.03
2023-01-04T18:53:22.293Z,70.03
2023-01-04T18:58:28.367Z,74.75
2023-01-04T19:03:35.926Z,74.97
2023-01-04T19:08:42.698Z,72.05
2023-01-04T19:13:50.367Z,74.03
2023-01-04T19:18:56.677Z,74.70
2023-01-04T19:29:12.544Z,67.07
2023-01-04T19:34:19.003Z,69.40
2023-01-04T19:39:25.514Z,67.07
2023-01-04T19:44:31.635Z,67.93
2023-01-04T19:49:37.620Z,66.88
2023-01-04T19:54:43.607Z,65.68
2023-01-04T19:59:49.768Z,65.65
2023-01-04T20:04:56.286Z,65.28
2023-01-04T20:10:02.260Z,63.38
2023-01-04T20:15:09.015Z,66.85
2023-01-04T20:20:15.465Z,65.07
2023-01-04T20:25:21.887Z,61.47
2023-01-04T20:30:28.042Z,62.85
2023-01-04T20:35:34.546Z,61.33
2023-01-04T20:40:42.317Z,63.17
2023-01-04T20:45:49.207Z,63.60
2023-01-04T20:50:55.470Z,61.63
2023-01-04T20:56:07.152Z,64.90
2023-01-04T21:01:13.821Z,66.32
2023-01-04T21:06:21.012Z,61.40
2023-01-04T21:11:27.465Z,69.38
2023-01-04T21:21:39.365Z,65.55
2023-01-04T21:31:51.630Z,52.38
2023-01-04T21:42:03.352Z,61.95
2023-01-04T21:47:09.718Z,62.13
2023-01-04T21:52:16.212Z,58.05
2023-01-04T21:57:22.634Z,62.30
2023-01-04T22:02:28.311Z,59.92
2023-01-04T22:07:34.167Z,57.75
2023-01-04T22:12:40.535Z,58.07
2023-01-04T22:22:52.116Z,60.83
2023-01-04T22:33:04.000Z,56.55
2023-01-04T22:38:09.999Z,59.17
2023-01-04T22:43:16.238Z,56.03
2023-01-04T22:48:22.418Z,56.03
2023-01-04T22:53:28.850Z,57.38
2023-01-04T22:58:34.764Z,59.05
2023-01-04T23:03:42.338Z,58.65
2023-01-04T23:08:48.700Z,60.22
2023-01-04T23:19:00.134Z,60.47
2023-01-04T23:24:06.181Z,57.47
2023-01-04T23:29:15.357Z,58.37
2023-01-04T23:34:21.384Z,59.13
2023-01-04T23:39:27.439Z,58.13
2023-01-04T23:44:34.151Z,60.08
2023-01-04T23:49:41.620Z,55.20
2023-01-04T23:54:47.672Z,65.97
2023-01-04T23:59:53.960Z,57.78
